• Join FlightAware (Why Join?)
  • Login
  • US Flag 
11:05PM EDT


 

Airport Tracker/Info


-or-


 

Live Flight TrackerFlight Track Log ✈ EGF3994 ✈ 22-Apr-2013 ✈ KORD - KDAY

Flight Track Log - Related Links

Times and Time Zones

All times are in EDT time to prevent confusion due to time zone crossing. See the EGF3994 flight status page for this flight to view local times or setup timezone preferences in your user account.

Time Position Orientation Groundspeed Altitude Reporting Facility
EDT Latitude Longitude Course Direction KTS MPH feet Rate Location/Type
07:29PM 41.9333 -87.9000 95° East 202 232 2,300  Level Chicago TRACON
07:31PM 41.9652 -87.5183 98° East  Level FlightAware Approximate
07:31PM 41.9167 -87.7425 98° East 251 289 5,300  Level Chicago Center
07:32PM 41.9526 -87.3922 98° East  Level FlightAware Approximate
07:32PM 41.9628 -87.6564 54° Northeast 277 319 7,300  Level Chicago Center
07:33PM 41.9428 -87.2656 95° East  Level FlightAware Approximate
07:33PM 41.9644 -87.5500 89° East 283 326 9,700  Level Chicago Center
07:34PM 41.9337 -87.1390 95° East  Level FlightAware Approximate
07:34PM 41.9594 -87.4344 93° East 301 346 11,900  Level Chicago Center
07:35PM 41.9536 -87.3183 94° East 309 356 13,700 1,680 Climbing Chicago Center
07:36PM 41.9489 -87.1975 93° East 320 368 15,400 1,500 Climbing Chicago Center
07:37PM 41.9442 -87.0419 92° East 341 392 16,800 1,080 Climbing Chicago Center
07:38PM 41.9447 -86.9019 90° East 367 422 17,700 960 Climbing Chicago Center
07:39PM 41.9481 -86.7572 88° East 384 442 18,800 1,020 Climbing Chicago Center
07:40PM 41.9511 -86.5986 88° East 400 460 19,900 1,020 Climbing Chicago Center
07:41PM 41.9517 -86.4450 90° East 409 471 21,000 1,020 Climbing Chicago Center
07:42PM 41.9536 -86.2889 89° East 416 479 22,100 960 Climbing Chicago Center
07:43PM 41.9328 -86.1356 100° East 418 481 23,000 420 Climbing Chicago Center
07:44PM 41.8875 -85.9858 112° Southeast 431 496 23,000  Level Chicago Center
07:45PM 41.8417 -85.8317 112° Southeast 443 510 23,000  Level Chicago Center
07:46PM 41.7875 -85.6478 112° Southeast 442 509 23,000  Level Chicago Center
07:47PM 41.7211 -85.5125 123° Southeast 447 514 23,000  Level Chicago Center
07:48PM 41.6158 -85.4569 158° South 442 509 23,000  Level Chicago Center
07:49PM 41.5000 -85.4067 162° South 441 507 23,000  Level Chicago Center
07:50PM 41.3614 -85.3494 163° South 437 503 23,000 -780 Level Chicago Center
07:51PM 41.2467 -85.3028 163° South 434 499 21,400 -1,560 Descending Chicago Center
07:52PM 41.1508 -85.2244 148° Southeast 411 473 19,800 -1,440 Descending Chicago Center
07:53PM 41.0719 -85.1119 133° Southeast 415 478 18,500 -1,140 Descending Chicago Center
07:54PM 40.9961 -85.0044 133° Southeast 406 467 17,500 -1,080 Descending Chicago Center
07:55PM 40.9189 -84.9003 134° Southeast 400 460 16,300 -1,260 Descending Chicago Center
07:56PM 40.8283 -84.7761 134° Southeast 393 452 15,000 -660 Descending Chicago Center
07:58PM 40.7544 -84.6708 133° Southeast 392 451 15,000 -240 Level Chicago Center
07:59PM 40.6800 -84.5697 134° Southeast 390 449 14,600 -720 Descending Chicago Center
08:00PM 40.6042 -84.4675 134° Southeast 390 449 13,500 -1,080 Descending Chicago Center
08:00PM 40.5728 -84.4286 137° Southeast 384 442 13,100 -1,380 Descending Indianapolis Center
08:01PM 40.4917 -84.4011 166° South 366 421 12,000 -1,380 Descending Indianapolis Center
08:01PM 40.4728 -84.3933 163° South 367 422 11,700 -1,440 Descending Indianapolis Center
08:02PM 40.3981 -84.3664 165° South 342 394 10,600 -1,620 Descending Indianapolis Center
08:02PM 40.3664 -84.3556 165° South 339 390 10,100 -1,200 Descending Indianapolis Center
08:03PM 40.3206 -84.3392 165° South 276 318 9,400 -1,500 Descending Indianapolis Center
08:03PM 40.2917 -84.3281 164° South 297 342 8,600 -2,100 Descending Indianapolis Center
08:03PM 40.2700 -84.3186 162° South 264 304 7,900 -1,680 Descending Indianapolis Center
08:04PM 40.2203 -84.3006 165° South 279 321 6,900 -1,740 Descending Indianapolis Center
08:04PM 40.1947 -84.2894 162° South 261 300 6,200 -1,560 Descending Indianapolis Center
08:05PM 40.1522 -84.2736 164° South 265 305 5,300 -1,380 Descending Indianapolis Center
08:06PM 40.1256 -84.2639 164° South 243 280 4,700 -1,440 Descending Indianapolis Center